Time;durP1;ratioP1;P1;durP2;ratioP2;P2;SDS_P1;SDS_P2;PMS_P1;PMS_P2;Temp;Humidity;BMP_temperature;BMP_pressure;BME280_temperature;BME280_humidity;BME280_pressure;Samples;Min_cycle;Max_cycle;Signal;HPM_P1;HPM_P2
2022/08/22 00:02:12;;;;;;;0.50;0.50;;;16.50;99.90;;;;;;5079350;28;20202;-69
2022/08/22 00:04:53;;;;;;;0.93;0.70;;;16.50;99.90;;;;;;5097808;28;20405;-70
2022/08/22 00:07:40;;;;;;;0.50;0.50;;;16.50;99.90;;;;;;5097659;28;20871;-70
2022/08/22 00:10:16;;;;;;;0.40;0.40;;;16.50;99.90;;;;;;5097712;28;20871;-70
2022/08/22 00:12:48;;;;;;;0.70;0.60;;;16.50;99.90;;;;;;5097670;28;20481;-70
2022/08/22 00:15:39;;;;;;;0.70;0.50;;;16.40;99.90;;;;;;5079384;28;20422;-70
2022/08/22 00:18:40;;;;;;;0.63;0.63;;;16.40;99.90;;;;;;5088597;28;20461;-71
2022/08/22 00:21:35;;;;;;;1.07;0.77;;;16.40;99.90;;;;;;5097499;28;20411;-69
2022/08/22 00:24:19;;;;;;;0.63;0.63;;;16.30;99.90;;;;;;5097186;28;20422;-69
2022/08/22 00:27:03;;;;;;;0.60;0.60;;;16.40;99.90;;;;;;5097039;28;20454;-69
2022/08/22 00:29:43;;;;;;;0.77;0.70;;;16.30;99.90;;;;;;5097177;28;20756;-70
2022/08/22 00:32:31;;;;;;;0.73;0.63;;;16.30;99.90;;;;;;5097287;28;20412;-70
2022/08/22 00:35:31;;;;;;;1.57;1.47;;;16.40;99.90;;;;;;5097249;28;20840;-68
2022/08/22 00:38:18;;;;;;;0.60;0.60;;;16.30;99.90;;;;;;5093289;28;20532;-70
2022/08/22 00:41:05;;;;;;;1.00;1.00;;;16.20;99.90;;;;;;5097067;28;20409;-69
2022/08/22 00:44:07;;;;;;;0.50;0.50;;;16.20;99.90;;;;;;5096985;28;20434;-69
2022/08/22 00:47:08;;;;;;;0.87;0.80;;;16.10;99.90;;;;;;5096920;28;20452;-70
2022/08/22 00:50:14;;;;;;;1.10;0.70;;;16.00;99.90;;;;;;5076630;28;20493;-69
2022/08/22 00:53:10;;;;;;;0.60;0.60;;;16.10;99.90;;;;;;5041834;28;20410;-70
2022/08/22 00:55:45;;;;;;;0.50;0.50;;;16.00;99.90;;;;;;5097080;28;20471;-69
2022/08/22 00:58:48;;;;;;;1.67;1.57;;;16.00;99.90;;;;;;5096319;28;20464;-70
2022/08/22 01:01:20;;;;;;;0.50;0.50;;;15.90;99.90;;;;;;5078497;28;20417;-70
2022/08/22 01:03:59;;;;;;;1.37;0.93;;;15.90;99.90;;;;;;5096342;28;20427;-69
2022/08/22 01:07:03;;;;;;;0.40;0.40;;;15.90;99.90;;;;;;5096410;28;20453;-69
2022/08/22 01:09:28;;;;;;;1.17;0.90;;;15.80;99.90;;;;;;5061141;28;20455;-69
2022/08/22 01:12:28;;;;;;;0.93;0.83;;;15.80;99.90;;;;;;5096101;28;20484;-70
2022/08/22 01:15:04;;;;;;;0.60;0.60;;;15.80;99.90;;;;;;5096501;28;20164;-68
2022/08/22 01:17:48;;;;;;;0.60;0.60;;;15.80;99.90;;;;;;5096216;28;20431;-70
2022/08/22 01:20:38;;;;;;;0.40;0.40;;;15.80;99.90;;;;;;5096291;28;20421;-69
2022/08/22 01:23:36;;;;;;;0.63;0.63;;;15.80;99.90;;;;;;5096341;28;20481;-69
2022/08/22 01:26:20;;;;;;;1.23;0.70;;;15.70;99.90;;;;;;5096129;28;20537;-68
2022/08/22 01:29:13;;;;;;;0.63;0.63;;;15.70;99.90;;;;;;5095763;28;20415;-70
2022/08/22 01:32:23;;;;;;;0.53;0.53;;;15.70;99.90;;;;;;5096585;28;20402;-69
2022/08/22 01:35:04;;;;;;;0.70;0.70;;;15.60;99.90;;;;;;5096510;28;20396;-69
2022/08/22 01:37:29;;;;;;;0.90;0.90;;;15.60;99.90;;;;;;5095771;28;20417;-69
2022/08/22 01:40:34;;;;;;;0.93;0.93;;;15.60;99.90;;;;;;5095579;28;20393;-68
2022/08/22 01:43:47;;;;;;;0.50;0.50;;;15.60;99.90;;;;;;5095953;28;20166;-70
2022/08/22 01:46:28;;;;;;;0.67;0.67;;;15.50;99.90;;;;;;5090094;28;20468;-70
2022/08/22 01:49:12;;;;;;;1.43;1.33;;;15.50;99.90;;;;;;5095435;28;20859;-69
2022/08/22 01:51:57;;;;;;;0.70;0.70;;;15.40;99.90;;;;;;5095684;28;20399;-69
2022/08/22 01:54:42;;;;;;;3.80;0.77;;;15.40;99.90;;;;;;5095415;28;20490;-69
2022/08/22 01:57:09;;;;;;;1.13;1.00;;;15.40;99.90;;;;;;5095471;28;20937;-71
2022/08/22 01:59:41;;;;;;;0.60;0.40;;;15.40;99.90;;;;;;5095447;28;20395;-69
2022/08/22 02:02:39;;;;;;;0.60;0.50;;;15.30;99.90;;;;;;5095637;28;20918;-70
2022/08/22 02:05:20;;;;;;;0.90;0.90;;;15.20;99.90;;;;;;5095337;28;20537;-69
2022/08/22 02:08:10;;;;;;;0.93;0.93;;;15.20;99.90;;;;;;5095244;28;20775;-68
2022/08/22 02:11:07;;;;;;;1.43;1.03;;;15.10;99.90;;;;;;5095626;28;20404;-68
2022/08/22 02:13:32;;;;;;;1.27;0.87;;;15.10;99.90;;;;;;5095225;28;20403;-70
2022/08/22 02:16:08;;;;;;;0.40;0.40;;;15.00;99.90;;;;;;5095168;28;20409;-71
2022/08/22 02:19:20;;;;;;;0.60;0.60;;;15.00;99.90;;;;;;5094729;28;20193;-69
2022/08/22 02:22:02;;;;;;;0.50;0.50;;;15.00;99.90;;;;;;5079374;28;20410;-69
2022/08/22 02:25:03;;;;;;;1.03;0.50;;;15.00;99.90;;;;;;5095113;28;20406;-69
2022/08/22 02:27:44;;;;;;;0.70;0.50;;;15.00;99.90;;;;;;5086494;28;20497;-69
2022/08/22 02:30:50;;;;;;;0.87;0.87;;;15.10;99.90;;;;;;5095190;28;20414;-69
2022/08/22 02:33:37;;;;;;;0.40;0.40;;;15.10;99.90;;;;;;5093956;28;20419;-69
2022/08/22 02:36:15;;;;;;;0.90;0.90;;;15.00;99.90;;;;;;5094940;28;20400;-69
2022/08/22 02:39:26;;;;;;;0.70;0.70;;;15.00;99.90;;;;;;5076257;28;20443;-69
2022/08/22 02:42:23;;;;;;;0.50;0.50;;;14.90;99.90;;;;;;5091358;28;20514;-69
2022/08/22 02:45:04;;;;;;;0.90;0.90;;;14.80;99.90;;;;;;5094746;28;20478;-69
2022/08/22 02:47:56;;;;;;;0.40;0.40;;;14.80;99.90;;;;;;5094733;28;20552;-69
2022/08/22 02:50:33;;;;;;;0.70;0.70;;;14.70;99.90;;;;;;5094457;28;20399;-70
2022/08/22 02:53:04;;;;;;;0.40;0.40;;;14.70;99.90;;;;;;5094610;28;20407;-70
2022/08/22 02:55:53;;;;;;;0.40;0.40;;;14.80;99.90;;;;;;5094492;28;20953;-70
2022/08/22 02:58:50;;;;;;;0.60;0.60;;;14.90;99.90;;;;;;5094048;28;20919;-68
2022/08/22 03:01:37;;;;;;;0.40;0.40;;;14.90;99.90;;;;;;5094375;28;20923;-70
2022/08/22 03:04:14;;;;;;;0.50;0.43;;;14.80;99.90;;;;;;5094186;28;20422;-69
2022/08/22 03:06:57;;;;;;;0.50;0.50;;;14.80;99.90;;;;;;5094180;28;20818;-70
2022/08/22 03:09:29;;;;;;;0.60;0.60;;;14.70;99.90;;;;;;5094030;28;20487;-70
2022/08/22 03:12:08;;;;;;;0.50;0.50;;;14.60;99.90;;;;;;5094293;28;20426;-69
2022/08/22 03:14:58;;;;;;;1.33;1.00;;;14.50;99.90;;;;;;5094305;28;20751;-68
2022/08/22 03:17:52;;;;;;;0.60;0.60;;;14.50;99.90;;;;;;5062395;28;20435;-69
2022/08/22 03:20:44;;;;;;;1.17;0.70;;;14.60;99.90;;;;;;5088096;28;20422;-69
2022/08/22 03:23:40;;;;;;;0.53;0.53;;;14.60;99.90;;;;;;5086527;28;20560;-69
2022/08/22 03:26:24;;;;;;;0.40;0.40;;;14.60;99.90;;;;;;5094119;28;20453;-70
2022/08/22 03:29:00;;;;;;;0.40;0.40;;;14.50;99.90;;;;;;5093467;28;20439;-69
2022/08/22 03:31:27;;;;;;;0.40;0.40;;;14.60;99.90;;;;;;5093614;28;20744;-69
2022/08/22 03:34:14;;;;;;;0.50;0.50;;;14.50;99.90;;;;;;5093146;28;20752;-69
2022/08/22 03:36:47;;;;;;;0.73;0.73;;;14.50;99.90;;;;;;5093717;28;20407;-70
2022/08/22 03:39:21;;;;;;;0.40;0.40;;;14.50;99.90;;;;;;5093701;28;20403;-68
2022/08/22 03:42:01;;;;;;;0.40;0.40;;;14.40;99.90;;;;;;5075725;28;20422;-70
2022/08/22 03:45:04;;;;;;;0.50;0.50;;;14.40;99.90;;;;;;5093659;28;20398;-69
2022/08/22 03:48:00;;;;;;;1.27;0.60;;;14.40;99.90;;;;;;5093423;28;20434;-69
2022/08/22 03:50:58;;;;;;;0.60;0.60;;;14.40;99.90;;;;;;5075251;28;20419;-69
2022/08/22 03:53:45;;;;;;;0.67;0.67;;;14.40;99.90;;;;;;5093637;28;20443;-70
2022/08/22 03:56:49;;;;;;;0.40;0.40;;;14.40;99.90;;;;;;5093756;28;20391;-69
2022/08/22 03:59:40;;;;;;;0.77;0.77;;;14.40;99.90;;;;;;5093286;28;20431;-69
2022/08/22 04:02:16;;;;;;;1.97;0.63;;;14.30;99.90;;;;;;5085071;28;20426;-68
2022/08/22 04:05:00;;;;;;;0.43;0.43;;;14.30;99.90;;;;;;5093555;28;20394;-69
2022/08/22 04:08:04;;;;;;;0.90;0.70;;;14.30;99.90;;;;;;5093342;28;20438;-70
2022/08/22 04:11:00;;;;;;;0.70;0.70;;;14.30;99.90;;;;;;5093631;28;20394;-68
2022/08/22 04:13:35;;;;;;;0.50;0.50;;;14.40;99.90;;;;;;5093311;28;20815;-69
2022/08/22 04:16:28;;;;;;;0.40;0.40;;;14.50;99.90;;;;;;5075289;28;20441;-69
2022/08/22 04:19:00;;;;;;;0.73;0.60;;;14.40;99.90;;;;;;5093135;28;20429;-69
2022/08/22 04:21:59;;;;;;;0.30;0.30;;;14.30;99.90;;;;;;5093254;28;20498;-69
2022/08/22 04:25:06;;;;;;;0.50;0.50;;;14.40;99.90;;;;;;5093504;28;20494;-70
2022/08/22 04:27:46;;;;;;;0.83;0.70;;;14.40;99.90;;;;;;5093415;28;20822;-70
2022/08/22 04:30:23;;;;;;;0.50;0.50;;;14.30;99.90;;;;;;5093563;28;20390;-69
2022/08/22 04:32:58;;;;;;;0.40;0.40;;;14.30;99.90;;;;;;5093298;28;20409;-70
2022/08/22 04:35:31;;;;;;;0.50;0.50;;;14.30;99.90;;;;;;5093437;28;20402;-69
2022/08/22 04:38:00;;;;;;;0.60;0.60;;;14.30;99.90;;;;;;5092887;28;20495;-69
2022/08/22 04:40:43;;;;;;;0.83;0.83;;;14.20;99.90;;;;;;5093234;28;20456;-70
2022/08/22 04:43:35;;;;;;;0.40;0.40;;;14.30;99.90;;;;;;5093364;28;20448;-68
2022/08/22 04:46:25;;;;;;;0.40;0.40;;;14.30;99.90;;;;;;5096830;28;20438;-70
2022/08/22 04:49:23;;;;;;;0.60;0.60;;;14.40;99.90;;;;;;5096543;28;20473;-68
2022/08/22 04:52:19;;;;;;;0.50;0.50;;;14.40;99.90;;;;;;5083336;28;20458;-69
2022/08/22 04:55:29;;;;;;;0.60;0.60;;;14.40;99.90;;;;;;5096745;28;20429;-69
2022/08/22 04:58:12;;;;;;;0.60;0.40;;;14.40;99.90;;;;;;5062747;28;20457;-70
2022/08/22 05:01:05;;;;;;;0.83;0.60;;;14.40;99.90;;;;;;5096699;28;20911;-69
2022/08/22 05:03:35;;;;;;;0.50;0.50;;;14.40;99.90;;;;;;5078249;28;20957;-69
2022/08/22 05:06:04;;;;;;;0.97;0.50;;;14.50;99.90;;;;;;5096510;28;20981;-69
2022/08/22 05:08:33;;;;;;;0.57;0.50;;;14.50;99.90;;;;;;5096155;28;21000;-70
2022/08/22 05:11:02;;;;;;;0.60;0.60;;;14.60;99.90;;;;;;5096397;28;20431;-70
2022/08/22 05:13:43;;;;;;;0.50;0.50;;;14.60;99.90;;;;;;5096479;28;20395;-69
2022/08/22 05:16:19;;;;;;;0.93;0.50;;;14.50;99.90;;;;;;5096502;28;20395;-68
2022/08/22 05:18:48;;;;;;;0.70;0.50;;;14.60;99.90;;;;;;5096244;28;20430;-70
2022/08/22 05:21:19;;;;;;;2.40;1.47;;;14.60;99.90;;;;;;5096499;28;20441;-70
2022/08/22 05:24:10;;;;;;;0.53;0.53;;;14.50;99.90;;;;;;5096367;28;20410;-69
2022/08/22 05:26:42;;;;;;;1.20;1.20;;;14.50;99.90;;;;;;5095349;28;20464;-69
2022/08/22 05:29:09;;;;;;;0.80;0.80;;;14.50;99.90;;;;;;5095864;28;20413;-69
2022/08/22 05:31:42;;;;;;;0.80;0.80;;;14.60;99.90;;;;;;5096082;28;20801;-70
2022/08/22 05:34:15;;;;;;;0.60;0.60;;;14.80;99.90;;;;;;5096100;28;20486;-70
2022/08/22 05:37:09;;;;;;;0.57;0.57;;;15.00;99.90;;;;;;5095776;28;20405;-69
2022/08/22 05:39:39;;;;;;;0.70;0.60;;;15.20;99.90;;;;;;5095816;28;20437;-69
2022/08/22 05:42:23;;;;;;;0.57;0.57;;;15.50;99.90;;;;;;5096099;28;20411;-70
2022/08/22 05:44:49;;;;;;;0.57;0.57;;;15.70;99.90;;;;;;5095921;28;20905;-69
2022/08/22 05:47:22;;;;;;;1.70;0.73;;;15.90;99.90;;;;;;5095533;28;20480;-69
2022/08/22 05:50:13;;;;;;;0.70;0.70;;;16.10;99.90;;;;;;5095575;28;20849;-69
2022/08/22 05:52:49;;;;;;;0.87;0.70;;;16.40;99.90;;;;;;5095821;28;20402;-69
2022/08/22 05:55:30;;;;;;;0.60;0.60;;;16.70;99.90;;;;;;5095635;28;20433;-70
2022/08/22 05:58:17;;;;;;;0.80;0.60;;;16.90;99.90;;;;;;5094976;28;20454;-70
2022/08/22 06:00:47;;;;;;;0.70;0.60;;;17.20;99.90;;;;;;5095529;28;20410;-69
2022/08/22 06:03:40;;;;;;;0.40;0.40;;;17.50;99.20;;;;;;5095200;28;20454;-69
2022/08/22 06:06:13;;;;;;;0.50;0.50;;;17.80;98.40;;;;;;5095671;28;20451;-69
2022/08/22 06:08:44;;;;;;;0.40;0.40;;;18.00;98.00;;;;;;5095415;28;20411;-69
2022/08/22 06:11:18;;;;;;;1.27;1.17;;;18.10;97.80;;;;;;5095466;28;20468;-69
2022/08/22 06:13:52;;;;;;;0.80;0.80;;;18.20;97.40;;;;;;5077608;28;20497;-69
2022/08/22 06:16:26;;;;;;;0.80;0.80;;;18.30;97.50;;;;;;5095500;28;20411;-69
2022/08/22 06:18:52;;;;;;;0.93;0.50;;;18.40;97.00;;;;;;5094851;28;20441;-70
2022/08/22 06:21:25;;;;;;;0.60;0.60;;;18.50;96.80;;;;;;5095059;28;20427;-68
2022/08/22 06:23:59;;;;;;;0.60;0.60;;;18.70;97.00;;;;;;5095215;28;20396;-69
2022/08/22 06:26:34;;;;;;;1.37;1.37;;;18.80;97.20;;;;;;5094977;28;20442;-69
2022/08/22 06:29:01;;;;;;;0.60;0.60;;;18.80;97.00;;;;;;5094760;28;20431;-70
2022/08/22 06:31:31;;;;;;;1.00;0.70;;;18.90;97.10;;;;;;5094825;28;20497;-70
2022/08/22 06:34:10;;;;;;;0.43;0.43;;;19.00;96.40;;;;;;5094823;28;20396;-70
2022/08/22 06:36:40;;;;;;;0.40;0.40;;;19.30;96.30;;;;;;5094820;28;20410;-70
2022/08/22 06:39:28;;;;;;;0.50;0.50;;;19.70;96.60;;;;;;5094350;28;20425;-69
2022/08/22 06:42:13;;;;;;;0.40;0.40;;;20.30;95.50;;;;;;5094762;28;20399;-70
2022/08/22 06:44:43;;;;;;;0.43;0.43;;;21.00;94.70;;;;;;5094494;28;20403;-70
2022/08/22 06:47:16;;;;;;;0.60;0.60;;;21.40;93.20;;;;;;5094533;28;20456;-69
2022/08/22 06:49:44;;;;;;;0.63;0.63;;;21.60;92.80;;;;;;5094375;28;20457;-70
2022/08/22 06:52:20;;;;;;;1.03;0.73;;;21.50;92.70;;;;;;5094653;28;20407;-70
2022/08/22 06:54:48;;;;;;;0.50;0.50;;;21.50;93.30;;;;;;5094454;28;20485;-70
2022/08/22 06:57:29;;;;;;;0.50;0.50;;;21.40;92.90;;;;;;5094478;28;20479;-70
2022/08/22 06:59:56;;;;;;;0.50;0.50;;;21.40;92.20;;;;;;5094291;28;20424;-69
2022/08/22 07:02:33;;;;;;;0.53;0.53;;;21.50;92.10;;;;;;5075969;28;20432;-70
2022/08/22 07:04:59;;;;;;;0.60;0.60;;;21.70;91.40;;;;;;5094357;28;20404;-70
2022/08/22 07:07:26;;;;;;;1.63;0.70;;;21.80;91.80;;;;;;5093638;28;20430;-70
2022/08/22 07:09:56;;;;;;;0.97;0.87;;;21.90;92.60;;;;;;5093653;28;20503;-70
2022/08/22 07:12:29;;;;;;;0.43;0.43;;;22.20;91.00;;;;;;5094168;28;20391;-71
2022/08/22 07:15:10;;;;;;;0.87;0.57;;;22.80;91.60;;;;;;5075979;28;20382;-70
2022/08/22 07:17:45;;;;;;;0.40;0.40;;;23.30;88.60;;;;;;5093778;28;20923;-70
2022/08/22 07:20:36;;;;;;;0.60;0.60;;;23.70;89.20;;;;;;5094188;28;20761;-70
2022/08/22 07:23:23;;;;;;;1.33;0.90;;;24.00;87.20;;;;;;5093843;28;20407;-70
2022/08/22 07:26:29;;;;;;;0.50;0.50;;;24.20;87.20;;;;;;5075766;28;20447;-70
2022/08/22 07:29:10;;;;;;;0.50;0.50;;;24.60;86.60;;;;;;5092817;28;20424;-71
2022/08/22 07:31:56;;;;;;;0.57;0.57;;;25.60;83.10;;;;;;5093771;28;20451;-71
2022/08/22 07:34:38;;;;;;;0.60;0.50;;;26.90;77.00;;;;;;5093864;28;20398;-71
2022/08/22 07:37:06;;;;;;;0.50;0.50;;;28.40;71.70;;;;;;5093739;28;20406;-71
2022/08/22 07:39:40;;;;;;;0.43;0.43;;;29.30;67.70;;;;;;5093489;28;20410;-70
2022/08/22 07:42:20;;;;;;;0.60;0.50;;;29.90;64.20;;;;;;5093687;28;20399;-70
2022/08/22 07:44:57;;;;;;;1.00;0.90;;;29.90;61.70;;;;;;5093716;28;20432;-71
2022/08/22 07:47:33;;;;;;;1.23;0.60;;;29.40;59.10;;;;;;5093701;28;20510;-70
2022/08/22 07:50:03;;;;;;;0.73;0.53;;;28.40;55.50;;;;;;5093621;28;20475;-69
2022/08/22 07:52:37;;;;;;;0.60;0.53;;;27.70;61.60;;;;;;5093804;28;20520;-69
2022/08/22 07:55:21;;;;;;;1.63;0.40;;;27.10;55.60;;;;;;5093805;28;20394;-70
2022/08/22 07:57:54;;;;;;;1.50;0.60;;;26.90;59.60;;;;;;5093436;28;20933;-71
2022/08/22 08:00:21;;;;;;;0.50;0.50;;;26.80;59.40;;;;;;5093707;28;20391;-71
2022/08/22 08:02:52;;;;;;;0.50;0.50;;;26.70;58.50;;;;;;5093383;28;20415;-70
2022/08/22 08:05:21;;;;;;;0.40;0.40;;;26.60;57.70;;;;;;5093518;28;20450;-70
2022/08/22 08:07:47;;;;;;;0.67;0.50;;;26.10;55.80;;;;;;5093275;28;20450;-69
2022/08/22 08:10:18;;;;;;;1.90;0.90;;;25.60;56.40;;;;;;5093510;28;20377;-70
2022/08/22 08:12:51;;;;;;;0.40;0.40;;;25.70;57.10;;;;;;5093572;28;20775;-70
2022/08/22 08:15:20;;;;;;;0.70;0.50;;;26.20;57.40;;;;;;5093617;28;20429;-70
2022/08/22 08:17:51;;;;;;;0.40;0.40;;;26.80;56.60;;;;;;5092878;28;20422;-70
2022/08/22 08:20:20;;;;;;;0.60;0.60;;;26.60;53.90;;;;;;5096123;28;20730;-70
2022/08/22 08:22:48;;;;;;;0.63;0.63;;;26.20;55.40;;;;;;5097375;28;20448;-69
2022/08/22 08:25:22;;;;;;;0.57;0.57;;;26.30;58.10;;;;;;5097278;28;20434;-70
2022/08/22 08:30:37;;;;;;;0.90;0.73;;;26.50;53.00;;;;;;5097708;28;20440;-70
2022/08/22 08:33:06;;;;;;;0.70;0.70;;;26.60;52.50;;;;;;5097485;28;20751;-71
2022/08/22 08:35:38;;;;;;;0.57;0.57;;;27.20;52.40;;;;;;5097181;28;20406;-70
2022/08/22 08:38:19;;;;;;;0.60;0.60;;;28.00;51.10;;;;;;5096925;28;20454;-70
2022/08/22 08:41:17;;;;;;;0.63;0.63;;;29.50;48.20;;;;;;5097210;28;20763;-71
2022/08/22 08:43:56;;;;;;;0.50;0.50;;;30.50;45.20;;;;;;5062898;28;20933;-70
2022/08/22 08:47:03;;;;;;;0.60;0.50;;;32.40;44.20;;;;;;5097053;28;20515;-71
2022/08/22 08:49:50;;;;;;;1.10;0.60;;;34.20;40.00;;;;;;5096045;28;20415;-71
2022/08/22 08:52:41;;;;;;;0.77;0.50;;;35.10;38.50;;;;;;5096875;28;20391;-71
2022/08/22 08:55:16;;;;;;;0.53;0.53;;;35.10;36.40;;;;;;5097067;28;20403;-70
2022/08/22 08:57:44;;;;;;;0.90;0.50;;;35.10;36.20;;;;;;5096634;28;20422;-72
2022/08/22 09:00:28;;;;;;;0.90;0.83;;;34.90;36.10;;;;;;5096808;28;20395;-71
2022/08/22 09:03:12;;;;;;;0.43;0.40;;;35.20;36.60;;;;;;5096540;28;20793;-72
2022/08/22 09:06:03;;;;;;;0.80;0.70;;;36.30;35.20;;;;;;5096678;28;20442;-71
2022/08/22 09:08:47;;;;;;;0.80;0.70;;;36.20;34.90;;;;;;5096226;28;20844;-71
2022/08/22 09:11:37;;;;;;;0.60;0.60;;;36.40;33.90;;;;;;5096591;28;20847;-69
2022/08/22 09:14:11;;;;;;;0.50;0.50;;;36.90;32.80;;;;;;5096605;28;20421;-69
2022/08/22 09:17:03;;;;;;;0.73;0.70;;;37.30;31.60;;;;;;5096483;28;20485;-70
2022/08/22 09:19:58;;;;;;;0.40;0.40;;;38.00;31.20;;;;;;5096046;28;20386;-68
2022/08/22 09:22:55;;;;;;;0.63;0.63;;;37.70;30.80;;;;;;5096392;28;20499;-69
2022/08/22 09:25:34;;;;;;;0.50;0.50;;;38.30;31.40;;;;;;5096216;28;20446;-69
2022/08/22 09:28:25;;;;;;;0.40;0.40;;;38.50;30.50;;;;;;5077656;28;21000;-68
2022/08/22 09:31:01;;;;;;;1.07;0.70;;;37.30;29.60;;;;;;5095159;28;20391;-68
2022/08/22 09:33:39;;;;;;;0.63;0.63;;;35.80;31.20;;;;;;5096222;28;20399;-68
2022/08/22 09:36:26;;;;;;;0.70;0.60;;;35.00;33.30;;;;;;5096052;28;20406;-68
2022/08/22 09:39:13;;;;;;;0.50;0.50;;;35.30;32.10;;;;;;5064332;28;20431;-69
2022/08/22 09:42:03;;;;;;;0.60;0.60;;;36.00;32.20;;;;;;5095950;28;20410;-68
2022/08/22 09:44:48;;;;;;;0.60;0.60;;;36.40;31.20;;;;;;5095710;28;20408;-68
2022/08/22 09:47:34;;;;;;;0.93;0.70;;;36.60;30.00;;;;;;5095738;28;20450;-68
2022/08/22 09:50:06;;;;;;;0.60;0.60;;;36.90;30.20;;;;;;5095786;28;20402;-69
2022/08/22 09:52:48;;;;;;;1.70;0.97;;;36.20;30.80;;;;;;5095642;28;20399;-68
2022/08/22 09:55:38;;;;;;;0.73;0.43;;;35.50;33.80;;;;;;5095801;28;20387;-69
2022/08/22 09:58:09;;;;;;;0.53;0.53;;;36.30;33.30;;;;;;5095287;28;20414;-69
2022/08/22 10:01:06;;;;;;;0.70;0.70;;;37.10;29.90;;;;;;5095482;28;20414;-68
2022/08/22 10:03:44;;;;;;;0.93;0.70;;;36.70;30.80;;;;;;5077140;28;20431;-69
2022/08/22 10:06:23;;;;;;;0.40;0.40;;;36.40;31.20;;;;;;5095456;28;20446;-69
2022/08/22 10:09:10;;;;;;;0.63;0.63;;;36.20;30.80;;;;;;5095097;28;20423;-69
2022/08/22 10:11:44;;;;;;;0.70;0.70;;;35.70;30.70;;;;;;5095422;28;20387;-69
2022/08/22 10:14:41;;;;;;;0.60;0.50;;;35.00;32.40;;;;;;5095446;28;20407;-68
2022/08/22 10:17:27;;;;;;;0.40;0.40;;;33.10;33.40;;;;;;5061099;28;20458;-68
2022/08/22 10:20:09;;;;;;;0.77;0.67;;;31.80;36.00;;;;;;5095058;28;20399;-68
2022/08/22 10:22:40;;;;;;;0.40;0.40;;;31.00;38.70;;;;;;5095279;28;20387;-68
2022/08/22 10:25:17;;;;;;;1.07;1.00;;;31.00;36.60;;;;;;5094936;28;20419;-68
2022/08/22 10:27:55;;;;;;;0.60;0.60;;;31.30;36.60;;;;;;5094791;28;20925;-69
2022/08/22 10:30:35;;;;;;;0.50;0.50;;;31.50;37.30;;;;;;5094772;28;20410;-68
2022/08/22 10:33:11;;;;;;;0.67;0.67;;;31.10;36.80;;;;;;5095016;28;20402;-68
2022/08/22 10:35:49;;;;;;;1.13;0.73;;;30.40;36.90;;;;;;5076627;28;20402;-68
2022/08/22 10:38:22;;;;;;;0.50;0.50;;;29.30;40.90;;;;;;5094381;28;20461;-68
2022/08/22 10:41:10;;;;;;;1.20;1.00;;;29.50;39.90;;;;;;5076577;28;20903;-67
2022/08/22 10:44:05;;;;;;;0.90;0.83;;;30.10;41.20;;;;;;5076275;28;20410;-69
2022/08/22 10:46:38;;;;;;;0.70;0.60;;;30.30;38.60;;;;;;5094047;28;20450;-68
2022/08/22 10:49:17;;;;;;;0.70;0.63;;;29.70;38.40;;;;;;5094309;28;20915;-68
2022/08/22 10:52:09;;;;;;;0.70;0.70;;;29.20;39.30;;;;;;5094878;28;20788;-69
2022/08/22 10:54:47;;;;;;;0.50;0.50;;;28.60;39.40;;;;;;5065583;28;20418;-68
2022/08/22 10:57:50;;;;;;;0.73;0.57;;;28.30;39.50;;;;;;5092199;28;20483;-67
2022/08/22 11:00:41;;;;;;;0.90;0.90;;;28.80;41.60;;;;;;5094584;28;20431;-69
2022/08/22 11:03:30;;;;;;;0.40;0.40;;;29.40;40.40;;;;;;5092887;28;20422;-70
2022/08/22 11:06:49;;;;;;;0.60;0.50;;;29.90;40.10;;;;;;5093679;28;20438;-69
2022/08/22 11:09:33;;;;;;;0.70;0.60;;;30.00;39.50;;;;;;5032326;28;20925;-67
2022/08/22 11:12:02;;;;;;;0.80;0.60;;;29.60;41.00;;;;;;5032348;28;20574;-69
2022/08/22 11:14:36;;;;;;;1.07;0.83;;;29.40;40.40;;;;;;5076377;28;20413;-68
2022/08/22 11:17:24;;;;;;;0.83;0.60;;;29.20;40.10;;;;;;5094111;28;20398;-69
2022/08/22 11:20:18;;;;;;;0.60;0.60;;;29.10;41.90;;;;;;5094433;28;20402;-67
2022/08/22 11:23:10;;;;;;;0.60;0.60;;;29.10;40.20;;;;;;5094057;28;20399;-69
2022/08/22 11:26:17;;;;;;;1.37;0.70;;;28.90;42.10;;;;;;5094212;28;20538;-69
2022/08/22 11:29:15;;;;;;;0.70;0.60;;;28.40;41.70;;;;;;5093678;28;20414;-68
2022/08/22 11:31:56;;;;;;;0.50;0.50;;;27.70;40.60;;;;;;5081961;28;20411;-67
2022/08/22 11:34:21;;;;;;;0.70;0.60;;;27.20;41.20;;;;;;5094248;28;20795;-68
2022/08/22 11:37:00;;;;;;;0.77;0.50;;;26.90;44.50;;;;;;5094365;28;20395;-67
2022/08/22 11:39:43;;;;;;;1.17;0.50;;;26.80;43.10;;;;;;5093763;28;20168;-68
2022/08/22 11:42:38;;;;;;;0.87;0.40;;;26.90;45.30;;;;;;5094117;28;20394;-68
2022/08/22 11:45:05;;;;;;;0.60;0.60;;;27.30;42.50;;;;;;5093914;28;20788;-69
2022/08/22 11:47:41;;;;;;;0.60;0.60;;;27.50;43.30;;;;;;5093736;28;20462;-68
2022/08/22 11:50:25;;;;;;;1.20;0.60;;;27.50;44.40;;;;;;5093646;28;20878;-68
2022/08/22 11:53:22;;;;;;;0.60;0.60;;;27.50;46.20;;;;;;5075394;28;20430;-67
2022/08/22 11:56:30;;;;;;;0.90;0.73;;;27.20;43.70;;;;;;5100135;28;20490;-69
2022/08/22 11:59:06;;;;;;;0.50;0.50;;;27.40;44.00;;;;;;5037850;28;20425;-69
2022/08/22 12:01:54;;;;;;;0.83;0.63;;;27.50;44.60;;;;;;5094449;28;20455;-69
2022/08/22 12:04:45;;;;;;;0.63;0.63;;;27.30;43.80;;;;;;5100459;28;20507;-70
2022/08/22 12:07:35;;;;;;;1.10;1.10;;;27.00;42.70;;;;;;5100132;28;20450;-69
2022/08/22 12:10:13;;;;;;;0.70;0.70;;;27.20;45.00;;;;;;5100237;28;20406;-68
2022/08/22 12:12:51;;;;;;;0.50;0.47;;;27.30;43.20;;;;;;5100403;28;20489;-69
2022/08/22 12:15:19;;;;;;;0.70;0.70;;;27.20;44.30;;;;;;5100491;28;20405;-70
2022/08/22 12:17:54;;;;;;;0.73;0.73;;;27.30;46.00;;;;;;5100065;28;20422;-68
2022/08/22 12:21:00;;;;;;;0.40;0.40;;;27.20;43.80;;;;;;5100322;28;20849;-69
2022/08/22 12:23:54;;;;;;;1.17;1.07;;;26.90;43.60;;;;;;5100302;28;20448;-70
2022/08/22 12:26:44;;;;;;;1.90;0.80;;;26.60;43.90;;;;;;5100150;28;20917;-70
2022/08/22 12:29:30;;;;;;;0.97;0.90;;;26.20;43.30;;;;;;5099770;28;20429;-69
2022/08/22 12:32:21;;;;;;;0.50;0.50;;;25.90;45.70;;;;;;5081886;28;20484;-70
2022/08/22 12:35:27;;;;;;;0.70;0.50;;;25.80;51.30;;;;;;5100101;28;20399;-69
2022/08/22 12:38:19;;;;;;;0.50;0.50;;;25.60;48.20;;;;;;5069382;28;20411;-69
2022/08/22 12:41:22;;;;;;;0.83;0.60;;;25.80;47.50;;;;;;5100019;28;20768;-69
2022/08/22 12:44:19;;;;;;;0.57;0.57;;;26.10;49.50;;;;;;5100296;28;20402;-69
2022/08/22 12:47:14;;;;;;;0.90;0.90;;;26.50;45.90;;;;;;5100008;28;20515;-70
2022/08/22 12:50:21;;;;;;;0.50;0.50;;;26.70;45.00;;;;;;5099861;28;20856;-69
2022/08/22 12:53:08;;;;;;;0.70;0.40;;;26.70;47.90;;;;;;5099755;28;20408;-69
2022/08/22 12:56:07;;;;;;;0.70;0.70;;;26.40;43.20;;;;;;5099975;28;20394;-70
2022/08/22 12:59:00;;;;;;;1.50;0.50;;;26.30;44.40;;;;;;5081401;28;20934;-70
2022/08/22 13:01:26;;;;;;;1.80;0.60;;;26.40;44.50;;;;;;5099824;28;20877;-68
2022/08/22 13:04:02;;;;;;;0.47;0.47;;;26.40;44.60;;;;;;5099716;28;20781;-70
2022/08/22 13:06:34;;;;;;;1.10;0.63;;;26.30;48.00;;;;;;5097396;28;20473;-69
2022/08/22 13:09:19;;;;;;;0.60;0.50;;;26.20;47.30;;;;;;5096339;28;20415;-69
2022/08/22 13:11:49;;;;;;;1.03;0.93;;;26.10;52.50;;;;;;5096644;28;20485;-70
2022/08/22 13:14:22;;;;;;;0.67;0.50;;;25.80;55.20;;;;;;5096468;28;20391;-69
2022/08/22 13:16:53;;;;;;;1.00;0.80;;;25.70;55.50;;;;;;5078120;28;20571;-68
2022/08/22 13:19:24;;;;;;;0.60;0.50;;;25.60;51.90;;;;;;5096169;28;20492;-70
2022/08/22 13:22:18;;;;;;;1.10;0.93;;;25.60;57.10;;;;;;5096370;28;20479;-69
2022/08/22 13:25:00;;;;;;;0.90;0.90;;;25.50;51.80;;;;;;5094130;28;20419;-70
2022/08/22 13:27:40;;;;;;;0.53;0.50;;;25.50;53.40;;;;;;5096178;28;20518;-70
2022/08/22 13:30:25;;;;;;;0.40;0.40;;;25.60;52.00;;;;;;5096319;28;20421;-70
2022/08/22 13:32:55;;;;;;;0.77;0.63;;;25.60;56.40;;;;;;5096245;28;20755;-70
2022/08/22 13:35:36;;;;;;;0.60;0.60;;;25.50;55.60;;;;;;5096220;28;20416;-69
2022/08/22 13:38:08;;;;;;;0.50;0.50;;;25.60;57.70;;;;;;5095965;28;20431;-69
2022/08/22 13:40:36;;;;;;;2.13;0.70;;;25.50;59.70;;;;;;5096091;28;20458;-69
2022/08/22 13:43:08;;;;;;;0.60;0.60;;;25.40;59.60;;;;;;5095881;28;20434;-69
2022/08/22 13:45:37;;;;;;;0.70;0.50;;;25.50;54.90;;;;;;5096031;28;20421;-70
2022/08/22 13:48:14;;;;;;;0.53;0.53;;;25.60;50.50;;;;;;5095600;28;20437;-69
2022/08/22 13:51:13;;;;;;;0.40;0.40;;;25.80;51.20;;;;;;5077484;28;20384;-69
2022/08/22 13:54:09;;;;;;;0.77;0.77;;;25.90;52.50;;;;;;5090356;28;20411;-69
2022/08/22 13:56:45;;;;;;;1.03;0.90;;;26.00;49.50;;;;;;5063994;28;20418;-69
2022/08/22 13:59:34;;;;;;;0.40;0.40;;;25.80;49.80;;;;;;5095381;28;20423;-69
2022/08/22 14:02:08;;;;;;;0.53;0.53;;;25.80;52.00;;;;;;5065253;28;20895;-70
2022/08/22 14:04:38;;;;;;;1.83;0.80;;;25.80;51.40;;;;;;5096121;28;20399;-69
2022/08/22 14:07:03;;;;;;;0.87;0.63;;;25.80;50.00;;;;;;5095292;28;20458;-70
2022/08/22 14:09:38;;;;;;;0.50;0.50;;;25.70;54.80;;;;;;5095152;28;20391;-69
2022/08/22 14:12:19;;;;;;;0.83;0.60;;;25.60;54.40;;;;;;5095606;28;20168;-68